createdAt,value
2023-04-18T00:02:23.664Z,11.30
2023-04-18T00:04:50.621Z,11.30
2023-04-18T00:07:17.901Z,11.30
2023-04-18T00:09:44.829Z,11.30
2023-04-18T00:12:12.170Z,11.30
2023-04-18T00:14:39.027Z,11.20
2023-04-18T00:17:09.313Z,11.20
2023-04-18T00:19:43.102Z,11.20
2023-04-18T00:22:10.672Z,11.20
2023-04-18T00:24:37.262Z,11.20
2023-04-18T00:27:03.972Z,11.10
2023-04-18T00:29:31.747Z,11.20
2023-04-18T00:31:58.577Z,11.10
2023-04-18T00:34:25.228Z,11.10
2023-04-18T00:36:51.920Z,11.10
2023-04-18T00:39:18.602Z,11.00
2023-04-18T00:41:45.477Z,11.00
2023-04-18T00:44:12.302Z,11.00
2023-04-18T00:46:39.146Z,11.00
2023-04-18T00:49:06.345Z,10.90
2023-04-18T00:51:35.548Z,10.90
2023-04-18T00:54:05.553Z,10.90
2023-04-18T00:56:32.336Z,10.90
2023-04-18T00:58:59.244Z,10.90
2023-04-18T01:01:26.120Z,10.80
2023-04-18T01:03:52.859Z,10.80
2023-04-18T01:06:19.998Z,10.80
2023-04-18T01:08:46.872Z,10.80
2023-04-18T01:11:13.608Z,10.70
2023-04-18T01:13:40.260Z,10.70
2023-04-18T01:16:07.143Z,10.70
2023-04-18T01:18:35.012Z,10.70
2023-04-18T01:21:02.312Z,10.70
2023-04-18T01:23:29.553Z,10.60
2023-04-18T01:25:56.241Z,10.60
2023-04-18T01:28:22.966Z,10.60
2023-04-18T01:30:49.834Z,10.60
2023-04-18T01:33:16.555Z,10.60
2023-04-18T01:35:43.321Z,10.50
2023-04-18T01:38:09.972Z,10.50
2023-04-18T01:40:36.731Z,10.50
2023-04-18T01:43:03.330Z,10.50
2023-04-18T01:45:30.085Z,10.50
2023-04-18T01:47:56.792Z,10.40
2023-04-18T01:52:50.584Z,11.20
2023-04-18T01:55:17.280Z,10.60
2023-04-18T01:57:44.247Z,10.40
2023-04-18T02:00:11.533Z,10.40
2023-04-18T02:02:38.407Z,10.30
2023-04-18T02:05:05.592Z,10.30
2023-04-18T02:07:32.221Z,10.20
2023-04-18T02:09:58.872Z,10.20
2023-04-18T02:12:25.633Z,10.20
2023-04-18T02:14:53.530Z,10.20
2023-04-18T02:17:21.498Z,10.10
2023-04-18T02:19:48.225Z,10.10
2023-04-18T02:22:14.914Z,10.10
2023-04-18T02:24:41.526Z,10.10
2023-04-18T02:27:08.416Z,10.00
2023-04-18T02:29:35.156Z,10.00
2023-04-18T02:32:02.043Z,10.00
2023-04-18T02:34:28.742Z,9.90
2023-04-18T02:36:55.364Z,9.90
2023-04-18T02:39:22.009Z,9.90
2023-04-18T02:41:48.626Z,9.80
2023-04-18T02:44:15.557Z,9.80
2023-04-18T02:46:42.304Z,9.80
2023-04-18T02:49:08.972Z,9.80
2023-04-18T02:51:35.592Z,9.70
2023-04-18T02:54:02.347Z,9.70
2023-04-18T02:56:29.025Z,9.70
2023-04-18T02:58:55.689Z,9.70
2023-04-18T03:01:22.375Z,9.60
2023-04-18T03:03:49.041Z,9.60
2023-04-18T03:06:15.792Z,9.60
2023-04-18T03:08:42.598Z,9.60
2023-04-18T03:11:09.339Z,9.60
2023-04-18T03:13:35.967Z,9.50
2023-04-18T03:16:02.840Z,9.50
2023-04-18T03:18:29.558Z,9.40
2023-04-18T03:20:56.264Z,9.40
2023-04-18T03:23:22.961Z,9.40
2023-04-18T03:25:49.650Z,9.40
2023-04-18T03:28:16.304Z,9.30
2023-04-18T03:30:42.919Z,9.30
2023-04-18T03:33:09.596Z,9.30
2023-04-18T03:35:36.367Z,9.20
2023-04-18T03:38:03.001Z,9.20
2023-04-18T03:40:29.641Z,9.20
2023-04-18T03:42:56.318Z,9.20
2023-04-18T03:45:22.965Z,9.20
2023-04-18T03:47:49.587Z,9.20
2023-04-18T03:50:16.558Z,9.10
2023-04-18T03:52:43.235Z,9.10
2023-04-18T03:55:09.992Z,9.10
2023-04-18T03:57:36.789Z,9.10
2023-04-18T04:00:07.951Z,9.10
2023-04-18T04:02:34.722Z,9.00
2023-04-18T04:05:03.176Z,9.10
2023-04-18T04:07:30.031Z,9.00
2023-04-18T04:09:57.485Z,9.00
2023-04-18T04:12:25.001Z,9.00
2023-04-18T04:14:51.875Z,8.90
2023-04-18T04:17:18.631Z,8.90
2023-04-18T04:19:45.330Z,8.90
2023-04-18T04:22:11.981Z,8.90
2023-04-18T04:24:39.509Z,8.90
2023-04-18T04:27:06.236Z,8.80
2023-04-18T04:29:32.852Z,8.80
2023-04-18T04:31:59.629Z,8.80
2023-04-18T04:34:26.766Z,8.70
2023-04-18T04:36:54.352Z,8.70
2023-04-18T04:39:21.222Z,8.70
2023-04-18T04:41:48.486Z,8.70
2023-04-18T04:44:18.193Z,8.70
2023-04-18T04:46:45.197Z,8.70
2023-04-18T04:49:12.238Z,8.70
2023-04-18T04:51:40.032Z,8.60
2023-04-18T04:54:06.815Z,8.60
2023-04-18T04:56:33.627Z,8.60
2023-04-18T04:59:00.881Z,8.60
2023-04-18T05:03:54.822Z,8.60
2023-04-18T05:06:22.677Z,8.60
2023-04-18T05:08:51.663Z,8.60
2023-04-18T05:11:18.477Z,8.50
2023-04-18T05:13:45.170Z,8.60
2023-04-18T05:16:12.469Z,8.50
2023-04-18T05:18:41.033Z,8.50
2023-04-18T05:21:07.762Z,8.50
2023-04-18T05:23:37.279Z,8.50
2023-04-18T05:26:05.322Z,8.40
2023-04-18T05:28:32.356Z,8.40
2023-04-18T05:31:02.109Z,8.40
2023-04-18T05:33:30.675Z,8.40
2023-04-18T05:35:58.067Z,8.40
2023-04-18T05:38:25.469Z,8.40
2023-04-18T05:40:52.296Z,8.40
2023-04-18T05:43:19.672Z,8.40
2023-04-18T05:45:46.489Z,8.40
2023-04-18T05:48:13.842Z,8.40
2023-04-18T05:50:40.821Z,8.40
2023-04-18T05:53:07.516Z,8.50
2023-04-18T05:55:34.375Z,8.50
2023-04-18T09:07:41.985Z,14.30
2023-04-18T09:10:09.951Z,13.80
2023-04-18T09:12:50.219Z,13.70
2023-04-18T09:15:20.823Z,13.70
2023-04-18T09:17:51.075Z,13.70
2023-04-18T09:20:41.008Z,13.80
2023-04-18T09:23:14.488Z,13.90
2023-04-18T09:25:43.300Z,14.00
2023-04-18T09:28:28.743Z,14.10
2023-04-18T09:30:57.333Z,14.10
2023-04-18T09:33:29.438Z,14.20
2023-04-18T09:36:16.721Z,14.20
2023-04-18T09:38:44.086Z,14.30
2023-04-18T09:41:11.923Z,14.40
2023-04-18T09:43:39.140Z,14.50
2023-04-18T09:46:07.293Z,14.60
2023-04-18T09:48:34.178Z,14.70
2023-04-18T09:51:06.589Z,14.70
2023-04-18T09:53:38.312Z,14.80
2023-04-18T09:56:08.892Z,14.90
2023-04-18T09:58:40.897Z,15.00
2023-04-18T10:01:08.017Z,15.20
2023-04-18T10:03:44.339Z,15.20
2023-04-18T10:06:14.629Z,15.30
2023-04-18T10:08:41.414Z,15.40
2023-04-18T10:11:08.129Z,15.50
2023-04-18T10:13:38.246Z,15.60
2023-04-18T10:16:05.383Z,15.70
2023-04-18T10:18:32.204Z,15.80
2023-04-18T10:21:05.617Z,15.90
2023-04-18T10:23:32.393Z,16.10
2023-04-18T10:25:59.260Z,16.20
2023-04-18T10:28:27.458Z,16.40
2023-04-18T10:30:56.560Z,16.50
2023-04-18T10:36:09.204Z,16.70
2023-04-18T10:38:45.237Z,16.70
2023-04-18T10:41:15.161Z,16.80
2023-04-18T10:44:08.499Z,16.90
2023-04-18T10:46:51.295Z,16.90
2023-04-18T10:49:31.107Z,16.90
2023-04-18T10:52:00.333Z,17.00
2023-04-18T10:54:58.494Z,17.00
2023-04-18T10:57:36.873Z,17.00
2023-04-18T11:00:05.122Z,17.00
2023-04-18T11:02:33.398Z,17.10
2023-04-18T11:05:02.912Z,17.00
2023-04-18T11:07:34.186Z,17.00
2023-04-18T11:10:01.912Z,17.10
2023-04-18T11:12:33.378Z,17.10
2023-04-18T11:15:03.504Z,17.20
2023-04-18T11:17:41.479Z,17.30
2023-04-18T11:20:12.741Z,17.40
2023-04-18T11:22:48.744Z,17.60
2023-04-18T11:25:16.740Z,17.70
2023-04-18T11:27:47.945Z,17.90
2023-04-18T11:30:15.462Z,18.10
2023-04-18T11:32:42.334Z,18.20
2023-04-18T11:35:11.028Z,18.40
2023-04-18T11:37:39.271Z,18.50
2023-04-18T11:40:08.383Z,18.60
2023-04-18T11:42:36.098Z,18.70
2023-04-18T11:45:03.571Z,18.70
2023-04-18T11:47:33.963Z,18.70
2023-04-18T11:50:02.658Z,18.80
2023-04-18T11:52:31.268Z,18.80
2023-04-18T11:55:22.009Z,18.90
2023-04-18T11:57:57.034Z,18.90
2023-04-18T12:00:38.479Z,18.90
2023-04-18T12:03:12.584Z,19.00
2023-04-18T12:05:40.207Z,19.00
2023-04-18T12:08:18.894Z,19.00
2023-04-18T12:10:52.800Z,19.00
2023-04-18T12:13:25.768Z,19.10
2023-04-18T12:15:53.358Z,19.10
2023-04-18T12:18:20.342Z,19.10
2023-04-18T12:20:52.319Z,19.20
2023-04-18T12:23:40.208Z,19.20
2023-04-18T12:26:11.220Z,19.20
2023-04-18T12:28:37.915Z,19.20
2023-04-18T12:31:08.059Z,19.20
2023-04-18T12:33:36.604Z,19.20
2023-04-18T12:36:05.382Z,19.10
2023-04-18T12:38:32.068Z,19.10
2023-04-18T12:40:58.762Z,19.10
2023-04-18T12:43:25.770Z,19.10
2023-04-18T12:45:52.555Z,19.00
2023-04-18T12:48:19.199Z,18.90
2023-04-18T12:50:45.839Z,18.90
2023-04-18T12:53:12.475Z,18.90
2023-04-18T12:55:39.226Z,18.80
2023-04-18T12:58:05.847Z,18.80
2023-04-18T13:00:32.866Z,18.70
2023-04-18T13:03:00.109Z,18.70
2023-04-18T13:05:32.078Z,18.60
2023-04-18T13:08:15.458Z,18.60
2023-04-18T13:10:43.587Z,18.60
2023-04-18T13:13:10.403Z,18.50
2023-04-18T13:15:37.135Z,18.40
2023-04-18T13:18:06.162Z,18.40
2023-04-18T13:20:34.340Z,18.40
2023-04-18T13:23:02.597Z,18.30
2023-04-18T13:25:29.336Z,18.20
2023-04-18T13:27:58.452Z,18.20
2023-04-18T13:30:25.499Z,18.20
2023-04-18T13:32:52.264Z,18.10
2023-04-18T13:35:18.999Z,18.10
2023-04-18T13:37:46.266Z,18.10
2023-04-18T13:40:13.580Z,18.10
2023-04-18T13:42:40.401Z,18.10
2023-04-18T13:45:07.665Z,18.10
2023-04-18T13:47:34.871Z,18.10
2023-04-18T13:50:01.694Z,18.10
2023-04-18T13:52:28.497Z,18.10
2023-04-18T13:54:55.415Z,18.20
2023-04-18T13:57:23.067Z,18.20
2023-04-18T13:59:49.738Z,18.20
2023-04-18T14:02:16.545Z,18.30
2023-04-18T14:04:43.724Z,18.40
2023-04-18T14:07:10.751Z,18.50
2023-04-18T14:09:37.458Z,18.60
2023-04-18T14:12:04.442Z,18.70
2023-04-18T14:14:31.052Z,18.80
2023-04-18T14:16:57.737Z,18.90
2023-04-18T14:19:24.883Z,19.10
2023-04-18T14:21:51.579Z,19.10
2023-04-18T14:24:18.304Z,19.20
2023-04-18T14:26:44.998Z,19.30
2023-04-18T14:29:11.833Z,19.40
2023-04-18T14:31:38.643Z,19.40
2023-04-18T14:34:06.431Z,19.40
2023-04-18T14:36:33.018Z,19.50
2023-04-18T14:38:59.726Z,19.50
2023-04-18T14:41:26.328Z,19.50
2023-04-18T14:43:53.161Z,19.50
2023-04-18T14:46:21.400Z,19.50
2023-04-18T14:48:48.095Z,19.50
2023-04-18T14:51:16.269Z,19.50
2023-04-18T14:53:43.430Z,19.50
2023-04-18T14:56:10.178Z,19.50
2023-04-18T14:58:36.883Z,19.40
2023-04-18T15:01:04.352Z,19.40
2023-04-18T15:03:31.522Z,19.30
2023-04-18T15:05:58.349Z,19.30
2023-04-18T15:08:25.215Z,19.30
2023-04-18T15:10:51.872Z,19.30
2023-04-18T15:13:18.495Z,19.30
2023-04-18T15:15:51.950Z,19.30
2023-04-18T15:18:18.576Z,19.30
2023-04-18T15:20:45.264Z,19.30
2023-04-18T15:23:13.578Z,19.30
2023-04-18T15:25:41.177Z,19.40
2023-04-18T15:28:07.782Z,19.40
2023-04-18T15:30:34.422Z,19.40
2023-04-18T15:33:02.284Z,19.50
2023-04-18T15:35:29.101Z,19.50
2023-04-18T15:37:56.474Z,19.50
2023-04-18T15:40:23.418Z,19.50
2023-04-18T15:42:50.956Z,19.50
2023-04-18T15:45:17.723Z,19.50
2023-04-18T15:47:44.406Z,19.40
2023-04-18T15:50:11.386Z,19.40
2023-04-18T15:52:40.744Z,19.40
2023-04-18T15:55:10.036Z,19.40
2023-04-18T15:57:37.176Z,19.30
2023-04-18T16:00:10.047Z,19.20
2023-04-18T16:02:39.255Z,19.20
2023-04-18T16:05:07.385Z,19.10
2023-04-18T16:07:34.342Z,19.10
2023-04-18T16:10:02.844Z,19.10
2023-04-18T16:12:29.537Z,19.00
2023-04-18T16:14:56.119Z,18.90
2023-04-18T16:17:22.776Z,18.80
2023-04-18T16:19:49.451Z,18.70
2023-04-18T16:22:16.184Z,18.60
2023-04-18T16:24:42.810Z,18.60
2023-04-18T16:27:09.455Z,18.50
2023-04-18T16:29:36.136Z,18.40
2023-04-18T16:32:02.934Z,18.30
2023-04-18T16:34:29.576Z,18.20
2023-04-18T16:36:56.208Z,18.10
2023-04-18T16:39:22.839Z,18.10
2023-04-18T16:41:49.417Z,18.00
2023-04-18T16:44:16.248Z,18.00
2023-04-18T16:46:43.198Z,17.90
2023-04-18T16:49:09.897Z,17.80
2023-04-18T16:51:37.718Z,17.70
2023-04-18T16:54:05.681Z,17.70
2023-04-18T16:56:32.379Z,17.70
2023-04-18T16:58:59.057Z,17.60
2023-04-18T17:01:25.855Z,17.60
2023-04-18T17:03:52.617Z,17.50
2023-04-18T17:06:19.437Z,17.50
2023-04-18T17:08:46.312Z,17.40
2023-04-18T17:11:12.965Z,17.30
2023-04-18T17:13:39.672Z,17.30
2023-04-18T17:16:07.405Z,17.20
2023-04-18T17:18:34.099Z,17.20
2023-04-18T17:21:00.805Z,17.10
2023-04-18T17:23:27.547Z,17.10
2023-04-18T17:25:54.208Z,17.00
2023-04-18T17:28:21.970Z,16.90
2023-04-18T17:30:49.978Z,16.90
2023-04-18T17:33:16.663Z,16.80
2023-04-18T17:35:43.317Z,16.70
2023-04-18T17:38:10.782Z,16.60
2023-04-18T17:40:37.537Z,16.60
2023-04-18T17:43:04.229Z,16.50
2023-04-18T17:45:31.015Z,16.40
2023-04-18T17:47:59.296Z,16.40
2023-04-18T17:50:26.092Z,16.20
2023-04-18T17:52:53.159Z,16.20
2023-04-18T17:55:20.020Z,16.10
2023-04-18T17:57:46.744Z,16.10
2023-04-18T18:00:14.463Z,16.00
2023-04-18T18:02:42.384Z,15.90
2023-04-18T18:05:13.392Z,15.80
2023-04-18T18:07:42.954Z,15.70
2023-04-18T18:10:10.553Z,15.70
2023-04-18T18:12:38.105Z,15.60
2023-04-18T18:15:05.533Z,15.60
2023-04-18T18:17:32.252Z,15.50
2023-04-18T18:19:59.054Z,15.40
2023-04-18T18:22:26.240Z,15.30
2023-04-18T18:24:52.982Z,15.20
2023-04-18T18:27:22.882Z,15.20
2023-04-18T18:29:52.568Z,15.20
2023-04-18T18:32:19.219Z,15.10
2023-04-18T18:34:45.866Z,15.00
2023-04-18T18:37:12.592Z,14.90
2023-04-18T18:39:39.415Z,14.90
2023-04-18T18:42:06.091Z,14.80
2023-04-18T18:44:33.303Z,14.80
2023-04-18T18:47:00.066Z,14.70
2023-04-18T18:49:27.375Z,14.60
2023-04-18T18:51:54.140Z,14.60
2023-04-18T18:54:20.866Z,14.60
2023-04-18T18:56:48.103Z,14.50
2023-04-18T18:59:15.715Z,14.40
2023-04-18T19:01:42.766Z,14.40
2023-04-18T19:04:09.689Z,14.30
2023-04-18T19:06:36.390Z,14.20
2023-04-18T19:09:03.666Z,14.20
2023-04-18T19:11:30.466Z,14.10
2023-04-18T19:13:57.148Z,14.10
2023-04-18T19:16:23.937Z,14.10
2023-04-18T19:18:50.764Z,14.00
2023-04-18T19:21:17.579Z,14.00
2023-04-18T19:23:44.195Z,13.90
2023-04-18T19:26:10.848Z,13.90
2023-04-18T19:28:37.701Z,13.80
2023-04-18T19:31:04.487Z,13.80
2023-04-18T19:33:31.170Z,13.70
2023-04-18T19:35:58.816Z,13.70
2023-04-18T19:38:25.523Z,13.60
2023-04-18T19:40:52.313Z,13.60
2023-04-18T19:43:18.938Z,13.60
2023-04-18T19:45:45.678Z,13.60
2023-04-18T19:48:12.477Z,13.40
2023-04-18T19:50:40.451Z,13.40
2023-04-18T19:53:07.197Z,13.40
2023-04-18T19:55:34.110Z,13.30
2023-04-18T19:58:00.885Z,13.30
2023-04-18T20:00:28.352Z,13.20
2023-04-18T20:02:55.476Z,13.20
2023-04-18T20:05:22.670Z,13.20
2023-04-18T20:07:49.367Z,13.20
2023-04-18T20:10:16.078Z,13.10
2023-04-18T20:12:42.672Z,13.10
2023-04-18T20:15:09.734Z,13.00
2023-04-18T20:17:36.409Z,13.00
2023-04-18T20:20:04.465Z,12.90
2023-04-18T20:22:32.866Z,12.90
2023-04-18T20:25:01.876Z,12.90
2023-04-18T20:27:30.243Z,12.80
2023-04-18T20:29:57.527Z,12.80
2023-04-18T20:32:24.234Z,12.70
2023-04-18T20:34:51.356Z,12.70
2023-04-18T20:37:19.897Z,12.70
2023-04-18T20:39:46.563Z,12.60
2023-04-18T20:42:14.670Z,12.50
2023-04-18T20:44:46.610Z,12.60
2023-04-18T20:47:15.432Z,12.50
2023-04-18T20:49:42.599Z,12.40
2023-04-18T20:52:14.229Z,12.40
2023-04-18T20:54:41.698Z,12.40
2023-04-18T20:57:08.547Z,12.40
2023-04-18T20:59:35.321Z,12.30
2023-04-18T21:02:02.154Z,12.30
2023-04-18T21:04:29.741Z,12.20
2023-04-18T21:06:56.619Z,12.20
2023-04-18T21:09:23.313Z,12.20
2023-04-18T21:11:50.066Z,12.20
2023-04-18T21:14:17.171Z,12.10
2023-04-18T21:16:44.157Z,12.10
2023-04-18T21:19:10.983Z,12.10
2023-04-18T21:21:37.652Z,12.10
2023-04-18T21:24:05.670Z,12.00
2023-04-18T21:26:32.352Z,12.00
2023-04-18T21:29:01.392Z,12.00
2023-04-18T21:31:30.778Z,11.90
2023-04-18T21:34:00.486Z,11.90
2023-04-18T21:36:28.448Z,11.90
2023-04-18T21:38:56.180Z,11.90
2023-04-18T21:41:24.379Z,11.90
2023-04-18T21:43:51.729Z,11.80
2023-04-18T21:46:19.049Z,11.80
2023-04-18T21:48:47.124Z,11.80
2023-04-18T21:51:16.199Z,11.80
2023-04-18T21:53:43.169Z,11.80
2023-04-18T21:56:09.920Z,11.80
2023-04-18T21:58:36.595Z,11.80
2023-04-18T22:01:03.510Z,11.70
2023-04-18T22:03:31.629Z,11.70
2023-04-18T22:05:58.791Z,11.70
2023-04-18T22:08:25.817Z,11.70
2023-04-18T22:10:57.601Z,11.70
2023-04-18T22:13:25.887Z,11.60
2023-04-18T22:15:52.563Z,11.60
2023-04-18T22:18:19.245Z,11.60
2023-04-18T22:20:49.519Z,11.60
2023-04-18T22:23:16.094Z,11.60
2023-04-18T22:25:42.710Z,11.50
2023-04-18T22:28:09.372Z,11.50
2023-04-18T22:30:36.237Z,11.50
2023-04-18T22:33:03.055Z,11.50
2023-04-18T22:35:29.818Z,11.40
2023-04-18T22:37:56.544Z,11.40
2023-04-18T22:40:23.228Z,11.40
2023-04-18T22:42:51.841Z,11.40
2023-04-18T22:45:19.363Z,11.40
2023-04-18T22:47:46.670Z,11.40
2023-04-18T22:50:14.190Z,11.30
2023-04-18T22:52:41.170Z,11.30
2023-04-18T22:55:08.818Z,11.30
2023-04-18T22:57:35.601Z,11.30
2023-04-18T23:00:04.069Z,11.30
2023-04-18T23:02:30.728Z,11.20
2023-04-18T23:04:58.955Z,11.20
2023-04-18T23:07:25.697Z,11.20
2023-04-18T23:09:52.595Z,11.20
2023-04-18T23:12:19.532Z,11.20
2023-04-18T23:14:46.294Z,11.20
2023-04-18T23:17:12.881Z,11.20
2023-04-18T23:19:39.625Z,11.10
2023-04-18T23:22:06.228Z,11.10
2023-04-18T23:24:32.858Z,11.10
2023-04-18T23:26:59.514Z,11.10
2023-04-18T23:29:26.161Z,11.10
2023-04-18T23:31:52.891Z,11.10
2023-04-18T23:34:19.558Z,11.00
2023-04-18T23:36:46.643Z,11.00
2023-04-18T23:39:13.626Z,11.00
2023-04-18T23:41:40.806Z,11.00
2023-04-18T23:44:07.480Z,10.90
2023-04-18T23:46:36.235Z,11.00
2023-04-18T23:49:03.532Z,11.00
2023-04-18T23:51:30.994Z,10.90
2023-04-18T23:53:57.613Z,10.90
2023-04-18T23:56:24.308Z,11.00
2023-04-18T23:58:50.916Z,10.90
